Time;durP1;ratioP1;P1;durP2;ratioP2;P2;SDS_P1;SDS_P2;PMS_P1;PMS_P2;Temp;Humidity;BMP_temperature;BMP_pressure;BME280_temperature;BME280_humidity;BME280_pressure;Samples;Min_cycle;Max_cycle;Signal;HPM_P1;HPM_P2
2022/06/11 00:00:57;;;;;;;7.03;3.67;;;;;;;;;;5101627;28;20023;-71
2022/06/11 00:03:43;;;;;;;7.78;3.53;;;;;;;;;;5109786;28;20098;-71
2022/06/11 00:06:31;;;;;;;7.97;4.03;;;;;;;;;;5110320;28;20118;-71
2022/06/11 00:09:16;;;;;;;5.85;3.33;;;;;;;;;;5109274;28;20031;-70
2022/06/11 00:12:02;;;;;;;6.65;3.28;;;;;;;;;;5112728;28;20102;-72
2022/06/11 00:14:49;;;;;;;7.45;3.20;;;;;;;;;;5109084;28;20097;-71
2022/06/11 00:17:34;;;;;;;6.20;3.42;;;;;;;;;;5104667;28;20024;-66
2022/06/11 00:20:20;;;;;;;7.63;3.50;;;;;;;;;;5115757;28;20027;-69
2022/06/11 00:23:05;;;;;;;9.23;3.70;;;;;;;;;;5110415;28;20382;-69
2022/06/11 00:25:51;;;;;;;8.93;3.70;;;;;;;;;;5112423;28;20031;-69
2022/06/11 00:28:37;;;;;;;7.03;3.22;;;;;;;;;;5107085;28;20035;-69
2022/06/11 00:31:23;;;;;;;7.63;3.38;;;;;;;;;;5100241;28;20073;-69
2022/06/11 00:34:09;;;;;;;6.50;3.42;;;;;;;;;;5110385;28;20076;-68
2022/06/11 00:36:55;;;;;;;6.00;3.08;;;;;;;;;;5110975;28;20031;-69
2022/06/11 00:39:40;;;;;;;7.55;3.63;;;;;;;;;;5112237;28;20031;-66
2022/06/11 00:42:28;;;;;;;8.38;3.47;;;;;;;;;;5111743;28;20455;-68
2022/06/11 00:45:27;;;;;;;6.93;3.40;;;;;;;;;;5101346;28;20035;-66
2022/06/11 00:48:22;;;;;;;6.75;3.95;;;;;;;;;;5107705;28;20036;-68
2022/06/11 00:51:34;;;;;;;5.68;3.50;;;;;;;;;;5107102;28;20098;-65
2022/06/11 00:54:22;;;;;;;8.02;3.38;;;;;;;;;;5097672;28;20279;-71
2022/06/11 00:57:08;;;;;;;4.57;2.88;;;;;;;;;;5096956;28;20034;-72
2022/06/11 00:59:57;;;;;;;7.50;3.70;;;;;;;;;;5110516;28;20359;-70
2022/06/11 01:02:43;;;;;;;4.38;3.03;;;;;;;;;;5104931;28;20024;-71
2022/06/11 01:05:31;;;;;;;6.18;3.47;;;;;;;;;;5095036;28;20020;-71
2022/06/11 01:08:36;;;;;;;5.60;2.75;;;;;;;;;;5109908;28;20085;-70
2022/06/11 01:11:38;;;;;;;5.50;3.03;;;;;;;;;;5108374;28;20020;-68
2022/06/11 01:14:29;;;;;;;7.50;4.07;;;;;;;;;;5100254;28;20099;-69
2022/06/11 01:17:20;;;;;;;7.60;3.42;;;;;;;;;;5105598;28;20491;-65
2022/06/11 01:20:18;;;;;;;5.78;3.50;;;;;;;;;;5109741;28;20391;-66
2022/06/11 01:23:19;;;;;;;6.40;3.08;;;;;;;;;;5118261;28;20326;-66
2022/06/11 01:26:05;;;;;;;4.72;3.03;;;;;;;;;;5094382;28;20486;-66
2022/06/11 01:28:56;;;;;;;6.85;3.42;;;;;;;;;;5107920;28;20440;-64
2022/06/11 01:31:49;;;;;;;5.70;3.42;;;;;;;;;;5103200;28;20031;-69
2022/06/11 01:34:57;;;;;;;7.75;3.33;;;;;;;;;;5105435;28;20402;-68
2022/06/11 01:37:52;;;;;;;9.18;2.90;;;;;;;;;;5097852;28;20043;-69
2022/06/11 01:40:49;;;;;;;6.47;3.30;;;;;;;;;;5101010;28;20118;-68
2022/06/11 01:43:40;;;;;;;8.00;3.22;;;;;;;;;;5111512;28;20016;-69
2022/06/11 01:46:31;;;;;;;6.30;3.30;;;;;;;;;;5105956;28;20019;-68
2022/06/11 01:49:20;;;;;;;5.72;3.33;;;;;;;;;;5109487;28;20117;-64
2022/06/11 01:52:18;;;;;;;4.70;2.97;;;;;;;;;;5113565;28;20077;-67
2022/06/11 01:55:19;;;;;;;4.53;3.03;;;;;;;;;;5119011;28;20016;-66
2022/06/11 01:58:25;;;;;;;4.75;3.05;;;;;;;;;;5109157;28;20019;-67
2022/06/11 02:01:16;;;;;;;3.80;2.78;;;;;;;;;;5115284;28;20106;-67
2022/06/11 02:04:12;;;;;;;4.00;3.13;;;;;;;;;;5107583;27;20077;-70
2022/06/11 02:07:06;;;;;;;5.57;3.15;;;;;;;;;;5106847;28;20501;-69
2022/06/11 02:10:11;;;;;;;9.18;2.80;;;;;;;;;;5104916;27;20026;-65
2022/06/11 02:12:59;;;;;;;6.28;2.60;;;;;;;;;;5114204;28;20022;-67
2022/06/11 02:15:51;;;;;;;4.90;2.63;;;;;;;;;;5107497;27;20436;-67
2022/06/11 02:18:37;;;;;;;4.40;2.65;;;;;;;;;;5101608;28;20016;-67
2022/06/11 02:21:25;;;;;;;6.22;2.80;;;;;;;;;;5101123;28;20020;-65
2022/06/11 02:24:13;;;;;;;7.38;3.10;;;;;;;;;;5106652;28;20379;-67
2022/06/11 02:27:03;;;;;;;7.43;2.80;;;;;;;;;;5117647;28;20032;-69
2022/06/11 02:29:50;;;;;;;6.50;3.17;;;;;;;;;;5107640;28;20482;-65
2022/06/11 02:32:35;;;;;;;3.80;2.55;;;;;;;;;;5102676;28;20085;-65
2022/06/11 02:35:27;;;;;;;5.20;2.63;;;;;;;;;;5095494;28;20359;-64
2022/06/11 02:38:14;;;;;;;6.45;3.13;;;;;;;;;;5092994;28;20015;-65
2022/06/11 02:41:02;;;;;;;4.97;3.05;;;;;;;;;;5103986;27;20098;-66
2022/06/11 02:43:47;;;;;;;6.57;2.83;;;;;;;;;;5119442;27;20024;-65
2022/06/11 02:46:43;;;;;;;7.82;3.33;;;;;;;;;;5108906;28;20024;-70
2022/06/11 02:49:30;;;;;;;4.50;2.70;;;;;;;;;;5108687;28;20548;-69
2022/06/11 02:52:18;;;;;;;4.30;2.70;;;;;;;;;;5112158;27;20023;-68
2022/06/11 02:55:03;;;;;;;6.15;2.58;;;;;;;;;;5112384;28;20485;-68
2022/06/11 02:57:49;;;;;;;8.40;2.80;;;;;;;;;;5106836;28;20069;-69
2022/06/11 03:00:36;;;;;;;5.43;2.80;;;;;;;;;;5117644;28;20027;-69
2022/06/11 03:03:23;;;;;;;7.05;2.90;;;;;;;;;;5107031;27;20028;-69
2022/06/11 03:06:09;;;;;;;7.50;2.85;;;;;;;;;;5112707;28;20027;-65
2022/06/11 03:08:55;;;;;;;5.32;2.50;;;;;;;;;;5110741;28;20402;-64
2022/06/11 03:11:41;;;;;;;6.75;3.08;;;;;;;;;;5106244;28;20172;-65
2022/06/11 03:14:27;;;;;;;6.93;3.53;;;;;;;;;;5104201;28;20386;-64
2022/06/11 03:17:14;;;;;;;4.35;2.70;;;;;;;;;;5098552;27;20537;-65
2022/06/11 03:20:00;;;;;;;4.78;2.53;;;;;;;;;;5109611;28;20030;-64
2022/06/11 03:22:46;;;;;;;7.97;2.60;;;;;;;;;;5110146;28;20024;-65
2022/06/11 03:25:31;;;;;;;5.93;2.72;;;;;;;;;;5102325;28;20035;-66
2022/06/11 03:28:19;;;;;;;5.53;3.13;;;;;;;;;;5108230;28;20019;-65
2022/06/11 03:31:06;;;;;;;3.92;2.70;;;;;;;;;;5092236;28;20215;-66
2022/06/11 03:33:52;;;;;;;6.82;3.67;;;;;;;;;;5112676;28;20378;-66
2022/06/11 03:36:37;;;;;;;8.00;2.78;;;;;;;;;;5104471;27;20024;-66
2022/06/11 03:39:23;;;;;;;3.25;2.35;;;;;;;;;;5104836;28;20057;-64
2022/06/11 03:42:08;;;;;;;7.05;2.72;;;;;;;;;;5107757;28;20020;-65
2022/06/11 03:44:54;;;;;;;5.05;2.50;;;;;;;;;;5106498;28;20102;-64
2022/06/11 03:47:40;;;;;;;6.70;3.00;;;;;;;;;;5100684;28;20035;-65
2022/06/11 03:50:30;;;;;;;7.18;2.67;;;;;;;;;;5113237;28;20040;-64
2022/06/11 03:53:15;;;;;;;5.40;3.08;;;;;;;;;;5110821;28;20106;-64
2022/06/11 03:56:02;;;;;;;5.30;3.22;;;;;;;;;;5110175;28;20051;-66
2022/06/11 03:58:48;;;;;;;5.18;3.08;;;;;;;;;;5112459;27;20019;-64
2022/06/11 04:01:34;;;;;;;5.47;3.08;;;;;;;;;;5106198;27;20019;-64
2022/06/11 04:04:20;;;;;;;4.03;2.65;;;;;;;;;;5129880;27;20068;-65
2022/06/11 04:07:05;;;;;;;5.68;2.97;;;;;;;;;;5118564;27;20015;-64
2022/06/11 04:09:51;;;;;;;4.03;2.63;;;;;;;;;;5090087;28;20302;-66
2022/06/11 04:12:37;;;;;;;10.65;3.33;;;;;;;;;;5112949;28;20027;-65
2022/06/11 04:15:22;;;;;;;4.45;3.05;;;;;;;;;;5104397;28;20016;-70
2022/06/11 04:18:08;;;;;;;5.05;2.60;;;;;;;;;;5102869;28;20019;-65
2022/06/11 04:20:55;;;;;;;5.53;2.70;;;;;;;;;;5099313;28;20517;-69
2022/06/11 04:23:43;;;;;;;5.45;2.78;;;;;;;;;;5100867;28;20324;-69
2022/06/11 04:26:34;;;;;;;4.25;2.50;;;;;;;;;;5113036;28;20023;-69
2022/06/11 04:29:23;;;;;;;4.43;2.92;;;;;;;;;;5113145;28;20028;-69
2022/06/11 04:32:10;;;;;;;5.78;2.80;;;;;;;;;;5103300;28;20088;-70
2022/06/11 04:34:56;;;;;;;4.03;2.42;;;;;;;;;;5115453;28;20035;-69
2022/06/11 04:37:42;;;;;;;5.10;2.47;;;;;;;;;;5118111;27;20431;-72
2022/06/11 04:40:28;;;;;;;10.63;2.90;;;;;;;;;;5102969;28;20023;-70
2022/06/11 04:43:13;;;;;;;6.47;3.17;;;;;;;;;;5100968;28;20027;-69
2022/06/11 04:45:59;;;;;;;2.88;2.20;;;;;;;;;;5111261;28;20012;-71
2022/06/11 04:48:45;;;;;;;4.30;2.50;;;;;;;;;;5111616;28;20236;-71
2022/06/11 04:51:31;;;;;;;6.63;2.75;;;;;;;;;;5109233;28;20498;-71
2022/06/11 04:54:17;;;;;;;4.38;2.50;;;;;;;;;;5114374;27;20055;-70
2022/06/11 04:57:02;;;;;;;4.72;3.22;;;;;;;;;;5098803;27;20023;-67
2022/06/11 04:59:48;;;;;;;8.57;2.60;;;;;;;;;;5094841;28;20015;-67
2022/06/11 05:02:34;;;;;;;5.40;2.67;;;;;;;;;;5102259;28;20028;-67
2022/06/11 05:05:20;;;;;;;4.20;2.90;;;;;;;;;;5103233;28;20591;-66
2022/06/11 05:08:06;;;;;;;6.32;2.90;;;;;;;;;;5126227;27;20031;-68
2022/06/11 05:10:51;;;;;;;4.22;2.45;;;;;;;;;;5116004;27;20061;-66
2022/06/11 05:13:37;;;;;;;4.10;2.42;;;;;;;;;;5112010;28;20389;-67
2022/06/11 05:16:23;;;;;;;6.95;3.50;;;;;;;;;;5110705;28;20045;-69
2022/06/11 05:19:09;;;;;;;6.38;3.20;;;;;;;;;;5108492;28;20022;-68
2022/06/11 05:21:56;;;;;;;4.88;2.53;;;;;;;;;;5107370;28;20061;-70
2022/06/11 05:24:41;;;;;;;3.95;2.58;;;;;;;;;;5109307;28;20019;-69
2022/06/11 05:27:27;;;;;;;3.15;2.38;;;;;;;;;;5111925;28;20034;-69
2022/06/11 05:30:18;;;;;;;5.35;3.17;;;;;;;;;;5110539;28;20466;-67
2022/06/11 05:33:04;;;;;;;5.72;3.05;;;;;;;;;;5110281;28;20057;-71
2022/06/11 05:35:50;;;;;;;4.85;3.10;;;;;;;;;;5087372;28;20081;-71
2022/06/11 05:38:36;;;;;;;5.97;2.85;;;;;;;;;;5114735;28;20083;-74
2022/06/11 05:41:22;;;;;;;3.92;2.17;;;;;;;;;;5111464;28;20050;-70
2022/06/11 05:44:07;;;;;;;3.95;2.50;;;;;;;;;;5106802;28;20024;-72
2022/06/11 05:46:53;;;;;;;3.60;2.40;;;;;;;;;;5106871;28;20032;-71
2022/06/11 05:49:40;;;;;;;5.53;2.72;;;;;;;;;;5106347;28;20086;-67
2022/06/11 05:52:29;;;;;;;5.18;2.08;;;;;;;;;;5093985;28;20107;-69
2022/06/11 05:55:16;;;;;;;4.78;2.40;;;;;;;;;;5105314;28;20063;-69
2022/06/11 05:58:03;;;;;;;4.45;2.63;;;;;;;;;;5110949;28;20024;-70
2022/06/11 06:00:49;;;;;;;6.53;2.45;;;;;;;;;;5110850;28;20042;-69
2022/06/11 06:03:34;;;;;;;3.20;2.35;;;;;;;;;;5098186;28;20072;-70
2022/06/11 06:06:20;;;;;;;5.05;2.00;;;;;;;;;;5119505;28;20052;-66
2022/06/11 06:09:06;;;;;;;4.60;2.33;;;;;;;;;;5110620;28;20031;-66
2022/06/11 06:11:52;;;;;;;3.70;2.45;;;;;;;;;;5106589;28;20019;-66
2022/06/11 06:14:37;;;;;;;4.32;2.30;;;;;;;;;;5108950;28;20482;-65
2022/06/11 06:17:23;;;;;;;4.00;2.28;;;;;;;;;;5110493;28;20024;-66
2022/06/11 06:20:10;;;;;;;3.33;2.10;;;;;;;;;;5111066;28;20081;-65
2022/06/11 06:22:55;;;;;;;4.60;2.40;;;;;;;;;;5111216;28;20038;-64
2022/06/11 06:25:41;;;;;;;5.70;2.83;;;;;;;;;;5110710;28;20020;-69
2022/06/11 06:28:26;;;;;;;4.22;2.28;;;;;;;;;;5111482;28;20037;-67
2022/06/11 06:31:13;;;;;;;3.58;2.00;;;;;;;;;;5109483;27;20059;-67
2022/06/11 06:34:01;;;;;;;1.98;1.67;;;;;;;;;;5102553;28;20020;-67
2022/06/11 06:36:46;;;;;;;3.67;1.85;;;;;;;;;;5106693;27;20160;-67
2022/06/11 06:39:32;;;;;;;3.45;1.98;;;;;;;;;;5101283;28;20028;-67
2022/06/11 06:42:18;;;;;;;4.70;1.85;;;;;;;;;;5112038;27;20124;-72
2022/06/11 06:45:04;;;;;;;2.10;1.65;;;;;;;;;;5110933;28;20050;-65
2022/06/11 06:47:50;;;;;;;4.40;1.70;;;;;;;;;;5117299;27;20395;-69
2022/06/11 06:50:35;;;;;;;3.08;1.67;;;;;;;;;;5111195;28;20528;-70
2022/06/11 06:53:22;;;;;;;2.28;1.65;;;;;;;;;;5108547;28;20115;-69
2022/06/11 06:56:08;;;;;;;3.53;1.80;;;;;;;;;;5103057;28;20787;-69
2022/06/11 06:58:53;;;;;;;3.50;2.03;;;;;;;;;;5100350;27;20051;-70
2022/06/11 07:01:39;;;;;;;5.03;2.08;;;;;;;;;;5102993;28;20099;-65
2022/06/11 07:04:24;;;;;;;3.08;1.80;;;;;;;;;;5111145;27;20062;-59
2022/06/11 07:07:14;;;;;;;3.20;1.65;;;;;;;;;;5103390;28;20421;-59
2022/06/11 07:09:59;;;;;;;;;;;;;;;;;;5098678;28;20107;-59
2022/06/11 07:12:45;;;;;;;4.07;1.50;;;;;;;;;;5111683;28;19961;-59
2022/06/11 07:15:30;;;;;;;4.90;2.05;;;;;;;;;;5115055;28;20345;-59
2022/06/11 07:18:29;;;;;;;4.93;1.60;;;;;;;;;;5105716;28;20526;-58
2022/06/11 07:21:17;;;;;;;4.97;1.73;;;;;;;;;;5112721;28;20398;-59
2022/06/11 07:24:05;;;;;;;6.22;1.63;;;;;;;;;;5114974;27;20063;-68
2022/06/11 07:26:52;;;;;;;5.40;2.00;;;;;;;;;;5106730;27;20050;-67
2022/06/11 07:29:41;;;;;;;3.60;1.70;;;;;;;;;;5111178;27;20027;-68
2022/06/11 07:32:27;;;;;;;4.47;1.83;;;;;;;;;;5105804;28;20015;-67
2022/06/11 07:35:14;;;;;;;5.70;1.95;;;;;;;;;;5103148;28;20503;-68
2022/06/11 07:37:59;;;;;;;3.45;1.80;;;;;;;;;;5113328;28;20016;-59
2022/06/11 07:40:45;;;;;;;4.93;1.60;;;;;;;;;;5104733;28;20359;-58
2022/06/11 07:43:31;;;;;;;6.10;1.92;;;;;;;;;;5110994;28;20111;-60
2022/06/11 07:46:18;;;;;;;5.18;1.83;;;;;;;;;;5102868;28;20034;-59
2022/06/11 07:49:04;;;;;;;5.97;2.05;;;;;;;;;;5098591;28;20325;-57
2022/06/11 07:51:49;;;;;;;4.78;1.60;;;;;;;;;;5106414;28;20090;-60
2022/06/11 07:54:36;;;;;;;4.63;1.80;;;;;;;;;;5118174;27;20023;-59
2022/06/11 07:57:22;;;;;;;6.45;2.28;;;;;;;;;;5104793;28;20024;-57
2022/06/11 08:00:10;;;;;;;4.78;1.85;;;;;;;;;;5097667;28;20098;-61
2022/06/11 08:02:56;;;;;;;4.10;1.90;;;;;;;;;;5107780;28;20474;-59
2022/06/11 08:05:42;;;;;;;5.80;1.98;;;;;;;;;;5110797;27;20373;-59
2022/06/11 08:08:28;;;;;;;4.47;2.28;;;;;;;;;;5110506;27;20494;-59
2022/06/11 08:11:14;;;;;;;5.85;2.30;;;;;;;;;;5112561;27;20035;-60
2022/06/11 08:14:00;;;;;;;6.10;2.40;;;;;;;;;;5103065;28;20027;-63
2022/06/11 08:16:45;;;;;;;7.32;2.20;;;;;;;;;;5101931;28;20628;-60
2022/06/11 08:19:31;;;;;;;4.28;2.60;;;;;;;;;;5114064;27;20015;-58
2022/06/11 08:22:17;;;;;;;8.25;2.92;;;;;;;;;;5089871;28;20128;-58
2022/06/11 08:25:03;;;;;;;8.23;2.95;;;;;;;;;;5107802;27;20023;-59
2022/06/11 08:27:49;;;;;;;7.18;2.45;;;;;;;;;;5112465;27;20031;-61
2022/06/11 08:30:35;;;;;;;9.00;2.83;;;;;;;;;;5094457;28;20032;-61
2022/06/11 08:33:20;;;;;;;8.52;2.60;;;;;;;;;;5109786;27;20118;-65
2022/06/11 08:36:06;;;;;;;22.10;5.97;;;;;;;;;;5107621;28;20103;-57
2022/06/11 08:38:52;;;;;;;9.10;3.28;;;;;;;;;;5092989;28;20030;-70
2022/06/11 08:41:37;;;;;;;18.38;4.72;;;;;;;;;;5112066;27;20020;-64
2022/06/11 08:44:23;;;;;;;5.57;2.95;;;;;;;;;;5111751;28;20114;-66
2022/06/11 08:47:12;;;;;;;6.68;2.38;;;;;;;;;;5110721;28;20032;-67
2022/06/11 08:50:00;;;;;;;4.65;2.20;;;;;;;;;;5107059;27;20082;-67
2022/06/11 08:52:46;;;;;;;4.90;1.90;;;;;;;;;;5114523;28;20019;-68
2022/06/11 08:55:34;;;;;;;4.93;2.10;;;;;;;;;;5111817;28;20053;-73
2022/06/11 08:58:34;;;;;;;4.35;2.00;;;;;;;;;;5112585;28;20030;-74
2022/06/11 09:01:31;;;;;;;4.10;1.98;;;;;;;;;;5108953;28;20106;-73
2022/06/11 09:04:22;;;;;;;5.20;2.20;;;;;;;;;;5106823;28;20054;-73
2022/06/11 09:07:17;;;;;;;5.50;2.40;;;;;;;;;;5112035;28;20506;-74
2022/06/11 09:10:18;;;;;;;5.07;2.10;;;;;;;;;;5086434;28;20032;-73
2022/06/11 09:13:22;;;;;;;5.97;2.70;;;;;;;;;;5109835;28;20031;-65
2022/06/11 09:16:24;;;;;;;5.88;2.25;;;;;;;;;;5094163;28;20513;-73
2022/06/11 09:19:10;;;;;;;8.95;2.38;;;;;;;;;;5111260;28;20023;-74
2022/06/11 09:22:01;;;;;;;3.92;1.98;;;;;;;;;;5113268;28;20307;-74
2022/06/11 09:24:53;;;;;;;6.20;1.92;;;;;;;;;;5116009;28;20052;-74
2022/06/11 09:27:45;;;;;;;6.43;2.20;;;;;;;;;;5111383;28;20506;-73
2022/06/11 09:30:42;;;;;;;6.93;2.30;;;;;;;;;;5099038;28;20020;-64
2022/06/11 09:33:37;;;;;;;5.30;2.00;;;;;;;;;;5110044;28;20482;-65
2022/06/11 09:36:28;;;;;;;6.53;2.08;;;;;;;;;;5112163;28;20027;-66
2022/06/11 09:39:32;;;;;;;3.80;1.92;;;;;;;;;;5095949;28;20020;-66
2022/06/11 09:42:36;;;;;;;6.35;2.45;;;;;;;;;;5103995;28;20428;-64
2022/06/11 09:45:24;;;;;;;7.10;2.35;;;;;;;;;;5105532;28;20027;-63
2022/06/11 09:48:13;;;;;;;5.50;1.87;;;;;;;;;;5099058;28;20363;-73
2022/06/11 09:50:59;;;;;;;;;;;;;;;;;;5091596;28;20119;-68
2022/06/11 09:53:58;;;;;;;4.60;2.22;;;;;;;;;;5091855;28;19947;-68
2022/06/11 09:57:03;;;;;;;4.38;1.90;;;;;;;;;;5084284;28;20039;-67
2022/06/11 09:59:51;;;;;;;6.00;2.05;;;;;;;;;;5076262;28;20023;-68
2022/06/11 10:06:36;;;;;;;5.78;2.42;;;;;;;;;;5050434;28;20024;-67
2022/06/11 10:09:27;;;;;;;4.05;2.03;;;;;;;;;;5089008;28;20106;-67
2022/06/11 10:12:18;;;;;;;5.65;2.15;;;;;;;;;;5094330;28;20016;-67
2022/06/11 10:15:08;;;;;;;5.07;2.63;;;;;;;;;;5092132;28;20296;-68
2022/06/11 10:17:57;;;;;;;5.85;2.40;;;;;;;;;;5092706;28;20024;-68
2022/06/11 10:20:46;;;;;;;4.50;1.95;;;;;;;;;;5095141;28;20020;-67
2022/06/11 10:23:40;;;;;;;6.68;2.25;;;;;;;;;;5094115;28;20107;-68
2022/06/11 10:26:30;;;;;;;4.88;2.58;;;;;;;;;;5094241;28;20347;-65
2022/06/11 10:29:20;;;;;;;5.28;2.03;;;;;;;;;;5096346;28;20058;-68
2022/06/11 10:32:08;;;;;;;3.97;1.80;;;;;;;;;;5094124;28;20020;-69
2022/06/11 10:35:00;;;;;;;5.23;1.77;;;;;;;;;;5093228;28;20021;-69
2022/06/11 10:38:08;;;;;;;4.65;2.35;;;;;;;;;;5093528;28;20399;-67
2022/06/11 10:40:55;;;;;;;5.05;2.60;;;;;;;;;;5078246;28;20099;-68
2022/06/11 10:43:44;;;;;;;4.97;2.20;;;;;;;;;;5093217;28;20032;-67
2022/06/11 10:46:29;;;;;;;;;;;;;;;;;;5087951;28;20162;-68
2022/06/11 10:49:16;;;;;;;5.05;2.05;;;;;;;;;;5085350;28;19938;-69
2022/06/11 10:52:08;;;;;;;9.27;3.28;;;;;;;;;;5114681;28;20390;-69
2022/06/11 10:54:53;;;;;;;5.40;2.05;;;;;;;;;;5104413;28;20031;-67
2022/06/11 10:57:40;;;;;;;6.45;2.22;;;;;;;;;;5115482;28;20049;-69
2022/06/11 11:00:29;;;;;;;5.95;2.13;;;;;;;;;;5120302;28;20032;-68
2022/06/11 11:03:18;;;;;;;4.65;1.80;;;;;;;;;;5103375;28;20386;-68
2022/06/11 11:06:08;;;;;;;5.38;2.40;;;;;;;;;;5100075;28;20020;-68
2022/06/11 11:09:02;;;;;;;4.80;2.10;;;;;;;;;;5114214;28;20036;-68
2022/06/11 11:11:56;;;;;;;8.43;2.53;;;;;;;;;;5100182;27;20106;-68
2022/06/11 11:14:43;;;;;;;7.70;2.00;;;;;;;;;;5107176;28;20019;-68
2022/06/11 11:17:29;;;;;;;6.40;2.03;;;;;;;;;;5113717;28;20118;-68
2022/06/11 11:20:30;;;;;;;4.10;2.20;;;;;;;;;;5104518;28;20042;-67
2022/06/11 11:23:35;;;;;;;4.60;2.15;;;;;;;;;;5112894;28;20028;-68
2022/06/11 11:26:39;;;;;;;3.38;2.03;;;;;;;;;;5108716;28;20031;-68
2022/06/11 11:29:27;;;;;;;4.75;2.30;;;;;;;;;;5114003;28;20028;-68
2022/06/11 11:32:27;;;;;;;6.47;2.33;;;;;;;;;;5108716;28;20018;-68
2022/06/11 11:35:13;;;;;;;3.90;2.22;;;;;;;;;;5113221;28;20027;-68
2022/06/11 11:37:58;;;;;;;3.28;1.98;;;;;;;;;;5113410;28;20123;-65
2022/06/11 11:41:01;;;;;;;5.03;2.17;;;;;;;;;;5097794;28;20413;-64
2022/06/11 11:43:46;;;;;;;4.68;2.10;;;;;;;;;;5113270;28;20028;-65
2022/06/11 11:46:34;;;;;;;6.07;2.40;;;;;;;;;;5112653;28;20019;-64
2022/06/11 11:49:24;;;;;;;5.07;1.95;;;;;;;;;;5112380;28;20054;-66
2022/06/11 11:52:12;;;;;;;3.40;1.77;;;;;;;;;;5111943;28;20047;-63
2022/06/11 11:54:57;;;;;;;3.70;2.15;;;;;;;;;;5112611;28;20019;-63
2022/06/11 11:57:48;;;;;;;4.25;2.05;;;;;;;;;;5112203;28;20019;-67
2022/06/11 12:00:44;;;;;;;4.63;2.10;;;;;;;;;;5111883;28;20363;-68
2022/06/11 12:03:34;;;;;;;4.90;2.30;;;;;;;;;;5105834;28;20341;-69
2022/06/11 12:06:28;;;;;;;3.35;1.90;;;;;;;;;;5112370;28;20028;-69
2022/06/11 12:09:25;;;;;;;6.75;2.15;;;;;;;;;;5113761;28;20050;-69
2022/06/11 12:12:14;;;;;;;5.07;2.10;;;;;;;;;;5111830;28;20031;-69
2022/06/11 12:15:01;;;;;;;5.45;2.45;;;;;;;;;;5105707;28;20471;-66
2022/06/11 12:17:51;;;;;;;4.55;2.03;;;;;;;;;;5107381;28;20034;-68
2022/06/11 12:20:40;;;;;;;6.53;2.35;;;;;;;;;;5113702;28;20073;-69
2022/06/11 12:23:37;;;;;;;5.50;2.23;;;;;;;;;;5096847;28;20024;-69
2022/06/11 12:26:32;;;;;;;5.28;1.95;;;;;;;;;;5111525;28;20087;-68
2022/06/11 12:29:27;;;;;;;5.00;2.13;;;;;;;;;;5113474;27;20069;-69
2022/06/11 12:32:23;;;;;;;4.20;1.60;;;;;;;;;;5099931;28;20015;-68
2022/06/11 12:35:16;;;;;;;7.50;2.25;;;;;;;;;;5101923;28;20047;-65
2022/06/11 12:38:14;;;;;;;3.95;1.70;;;;;;;;;;5106027;28;20488;-68
2022/06/11 12:41:09;;;;;;;5.97;2.63;;;;;;;;;;5108737;28;20031;-68
2022/06/11 12:43:57;;;;;;;5.07;2.10;;;;;;;;;;5112545;28;20099;-69
2022/06/11 12:46:43;;;;;;;4.60;2.17;;;;;;;;;;5112467;28;20022;-69
2022/06/11 12:49:39;;;;;;;4.07;1.90;;;;;;;;;;5097552;28;20278;-68
2022/06/11 12:52:30;;;;;;;5.15;2.05;;;;;;;;;;5111509;28;20126;-66
2022/06/11 12:55:25;;;;;;;4.80;2.22;;;;;;;;;;5112223;28;20073;-68
2022/06/11 12:58:21;;;;;;;4.38;2.10;;;;;;;;;;5112043;28;20175;-68
2022/06/11 13:01:08;;;;;;;5.43;2.00;;;;;;;;;;5111810;28;20421;-69
2022/06/11 13:04:06;;;;;;;3.70;1.80;;;;;;;;;;5104898;28;20031;-67
2022/06/11 13:06:55;;;;;;;5.70;1.95;;;;;;;;;;5106580;28;20065;-68
2022/06/11 13:10:00;;;;;;;7.32;2.10;;;;;;;;;;5111938;28;20099;-73
2022/06/11 13:12:49;;;;;;;4.05;1.90;;;;;;;;;;5111584;28;20482;-66
2022/06/11 13:15:41;;;;;;;5.43;1.88;;;;;;;;;;5111713;28;20060;-65
2022/06/11 13:18:38;;;;;;;5.22;2.15;;;;;;;;;;5110402;28;20030;-66
2022/06/11 13:21:32;;;;;;;4.55;1.85;;;;;;;;;;5112684;28;20042;-65
2022/06/11 13:24:29;;;;;;;5.88;2.55;;;;;;;;;;5111529;28;20496;-66
2022/06/11 13:27:15;;;;;;;7.70;2.30;;;;;;;;;;5101089;28;20061;-65
2022/06/11 13:30:00;;;;;;;4.78;2.00;;;;;;;;;;5112092;28;20019;-71
2022/06/11 13:32:46;;;;;;;5.13;2.50;;;;;;;;;;5111298;28;20034;-66
2022/06/11 13:35:40;;;;;;;4.55;1.90;;;;;;;;;;5111973;28;20043;-67
2022/06/11 13:38:38;;;;;;;4.63;2.13;;;;;;;;;;5116532;28;20030;-67
2022/06/11 13:41:27;;;;;;;3.70;2.08;;;;;;;;;;5106785;28;20019;-66
2022/06/11 13:44:41;;;;;;;4.15;2.10;;;;;;;;;;5113906;28;20061;-65
2022/06/11 13:47:45;;;;;;;3.95;2.10;;;;;;;;;;5115332;28;20042;-68
2022/06/11 13:50:34;;;;;;;9.52;2.25;;;;;;;;;;5114668;28;20055;-75
2022/06/11 13:56:56;;;;;;;4.88;2.28;;;;;;;;;;5104758;28;20055;-74
2022/06/11 13:59:43;;;;;;;3.75;1.92;;;;;;;;;;5101476;28;20020;-74
2022/06/11 14:02:37;;;;;;;5.50;2.25;;;;;;;;;;5110273;28;20076;-74
2022/06/11 14:05:26;;;;;;;4.95;2.05;;;;;;;;;;5114582;28;20060;-69
2022/06/11 14:08:14;;;;;;;6.90;2.35;;;;;;;;;;5107170;28;20500;-69
2022/06/11 14:11:00;;;;;;;4.10;2.10;;;;;;;;;;5121693;28;20024;-67
2022/06/11 14:13:53;;;;;;;4.93;2.22;;;;;;;;;;5115768;28;20398;-68
2022/06/11 14:16:40;;;;;;;4.75;1.95;;;;;;;;;;5115047;28;20011;-70
2022/06/11 14:19:26;;;;;;;3.63;1.70;;;;;;;;;;5108763;28;20505;-68
2022/06/11 14:22:26;;;;;;;5.15;1.92;;;;;;;;;;5115299;28;20090;-69
2022/06/11 14:25:32;;;;;;;4.22;2.30;;;;;;;;;;5115414;28;20049;-68
2022/06/11 14:28:17;;;;;;;4.43;1.92;;;;;;;;;;5115719;27;20126;-69
2022/06/11 14:31:03;;;;;;;6.45;2.47;;;;;;;;;;5101229;28;20047;-68
2022/06/11 14:34:08;;;;;;;5.00;2.20;;;;;;;;;;5115314;28;20497;-69
2022/06/11 14:37:04;;;;;;;6.13;2.38;;;;;;;;;;5115932;27;20531;-69
2022/06/11 14:40:01;;;;;;;4.82;2.35;;;;;;;;;;5100619;28;20072;-67
2022/06/11 14:42:53;;;;;;;5.13;2.40;;;;;;;;;;5107702;28;20073;-65
2022/06/11 14:45:44;;;;;;;7.72;2.45;;;;;;;;;;5115562;28;20533;-69
2022/06/11 14:48:33;;;;;;;5.30;2.25;;;;;;;;;;5093060;28;20044;-70
2022/06/11 14:51:19;;;;;;;4.28;1.85;;;;;;;;;;5098542;28;20067;-69
2022/06/11 14:54:11;;;;;;;3.70;2.00;;;;;;;;;;5114277;28;20027;-69
2022/06/11 14:57:10;;;;;;;3.75;2.15;;;;;;;;;;5114780;28;20389;-68
2022/06/11 14:59:59;;;;;;;5.88;2.55;;;;;;;;;;5113803;28;20031;-66
2022/06/11 15:02:50;;;;;;;4.95;2.10;;;;;;;;;;5106443;28;20439;-71
2022/06/11 15:05:38;;;;;;;4.10;2.17;;;;;;;;;;5115674;27;20034;-65
2022/06/11 15:08:36;;;;;;;4.10;2.40;;;;;;;;;;5113955;28;20067;-66
2022/06/11 15:11:32;;;;;;;4.35;2.28;;;;;;;;;;5113664;28;20016;-66
2022/06/11 15:14:26;;;;;;;3.40;1.80;;;;;;;;;;5116457;28;20075;-65
2022/06/11 15:17:12;;;;;;;4.68;1.90;;;;;;;;;;5113718;28;20027;-65
2022/06/11 15:19:58;;;;;;;6.53;2.63;;;;;;;;;;5114269;28;20106;-68
2022/06/11 15:22:45;;;;;;;5.43;2.83;;;;;;;;;;5108123;28;20412;-69
2022/06/11 15:25:31;;;;;;;4.72;2.60;;;;;;;;;;5114510;28;20027;-70
2022/06/11 15:28:17;;;;;;;6.03;2.85;;;;;;;;;;5113850;28;20039;-69
2022/06/11 15:31:07;;;;;;;3.40;1.98;;;;;;;;;;5113931;28;20016;-69
2022/06/11 15:33:53;;;;;;;6.15;2.45;;;;;;;;;;5086507;28;20015;-69
2022/06/11 15:36:52;;;;;;;4.97;2.30;;;;;;;;;;5113775;28;20019;-68
2022/06/11 15:39:39;;;;;;;7.70;3.40;;;;;;;;;;5105213;28;20031;-67
2022/06/11 15:42:44;;;;;;;8.48;3.00;;;;;;;;;;5111528;28;20051;-75
2022/06/11 15:45:35;;;;;;;5.47;2.42;;;;;;;;;;5114138;28;20135;-74
2022/06/11 15:48:29;;;;;;;5.25;2.50;;;;;;;;;;5121139;28;20228;-75
2022/06/11 15:51:19;;;;;;;4.80;2.67;;;;;;;;;;5113623;28;20413;-74
2022/06/11 15:57:23;;;;;;;7.70;3.53;;;;;;;;;;5111153;27;20031;-59
2022/06/11 16:00:20;;;;;;;5.47;2.55;;;;;;;;;;5104817;27;20421;-62
2022/06/11 16:03:25;;;;;;;6.45;3.50;;;;;;;;;;5096314;28;20026;-63
2022/06/11 16:06:11;;;;;;;7.65;3.22;;;;;;;;;;5109851;28;20059;-62
2022/06/11 16:09:02;;;;;;;10.82;3.72;;;;;;;;;;5112872;28;20130;-62
2022/06/11 16:11:52;;;;;;;8.63;3.13;;;;;;;;;;5101400;28;20076;-62
2022/06/11 16:14:42;;;;;;;6.65;3.30;;;;;;;;;;5112463;28;20023;-64
2022/06/11 16:17:33;;;;;;;8.30;3.28;;;;;;;;;;5109106;27;20032;-62
2022/06/11 16:20:18;;;;;;;6.28;2.80;;;;;;;;;;5100833;28;20020;-62
2022/06/11 16:23:25;;;;;;;5.13;2.88;;;;;;;;;;5095634;28;20028;-62
2022/06/11 16:26:11;;;;;;;4.93;2.97;;;;;;;;;;5099871;28;20020;-61
2022/06/11 16:28:58;;;;;;;7.95;2.88;;;;;;;;;;5104547;28;20032;-61
2022/06/11 16:31:43;;;;;;;6.65;2.40;;;;;;;;;;5099503;28;20027;-61
2022/06/11 16:34:29;;;;;;;5.75;2.60;;;;;;;;;;5096934;28;20111;-64
2022/06/11 16:37:20;;;;;;;5.38;2.97;;;;;;;;;;5091375;28;20028;-64
2022/06/11 16:40:26;;;;;;;3.97;2.90;;;;;;;;;;5101553;28;20027;-62
2022/06/11 16:43:14;;;;;;;4.07;2.30;;;;;;;;;;5106338;27;20089;-62
2022/06/11 16:46:01;;;;;;;6.32;2.35;;;;;;;;;;5111919;28;20051;-63
2022/06/11 16:48:49;;;;;;;9.90;3.03;;;;;;;;;;5109608;28;20031;-62
2022/06/11 16:57:49;;;;;;;5.32;2.10;;;;;;;;;;5091805;28;20016;-70
2022/06/11 17:00:55;;;;;;;5.60;2.92;;;;;;;;;;5091886;28;20407;-70
2022/06/11 17:03:44;;;;;;;5.53;2.40;;;;;;;;;;5072203;28;20089;-69
2022/06/11 17:06:37;;;;;;;5.65;2.78;;;;;;;;;;5090895;28;20107;-69
2022/06/11 17:09:32;;;;;;;3.03;2.00;;;;;;;;;;5090262;28;20051;-69
2022/06/11 17:12:37;;;;;;;6.57;2.10;;;;;;;;;;5089903;28;20028;-70
2022/06/11 17:15:24;;;;;;;6.40;2.20;;;;;;;;;;5092985;28;20039;-69